sensor_id;sensor_type;location;lat;lon;timestamp;P1;durP1;ratioP1;P2;durP2;ratioP2
18082;SDS011;9168;51.194;6.840;2022-09-02T00:01:33;4.28;;;1.42;;
18082;SDS011;9168;51.194;6.840;2022-09-02T00:04:04;1.77;;;1.23;;
18082;SDS011;9168;51.194;6.840;2022-09-02T00:06:32;4.53;;;1.38;;
18082;SDS011;9168;51.194;6.840;2022-09-02T00:08:59;2.70;;;1.30;;
18082;SDS011;9168;51.194;6.840;2022-09-02T00:11:28;4.22;;;1.50;;
18082;SDS011;9168;51.194;6.840;2022-09-02T00:13:59;1.50;;;1.15;;
18082;SDS011;9168;51.194;6.840;2022-09-02T00:16:27;7.18;;;1.52;;
18082;SDS011;9168;51.194;6.840;2022-09-02T00:18:55;3.67;;;1.40;;
18082;SDS011;9168;51.194;6.840;2022-09-02T00:21:24;5.30;;;1.55;;
18082;SDS011;9168;51.194;6.840;2022-09-02T00:23:51;4.05;;;1.55;;
18082;SDS011;9168;51.194;6.840;2022-09-02T00:26:18;5.18;;;1.45;;
18082;SDS011;9168;51.194;6.840;2022-09-02T00:28:46;7.45;;;1.67;;
18082;SDS011;9168;51.194;6.840;2022-09-02T00:31:14;5.72;;;1.45;;
18082;SDS011;9168;51.194;6.840;2022-09-02T00:33:41;2.30;;;1.35;;
18082;SDS011;9168;51.194;6.840;2022-09-02T00:36:07;2.78;;;1.25;;
18082;SDS011;9168;51.194;6.840;2022-09-02T00:38:36;5.15;;;1.48;;
18082;SDS011;9168;51.194;6.840;2022-09-02T00:41:05;7.07;;;1.38;;
18082;SDS011;9168;51.194;6.840;2022-09-02T00:43:39;2.45;;;1.23;;
18082;SDS011;9168;51.194;6.840;2022-09-02T00:46:08;2.78;;;1.40;;
18082;SDS011;9168;51.194;6.840;2022-09-02T00:48:36;2.28;;;1.38;;
18082;SDS011;9168;51.194;6.840;2022-09-02T00:51:07;9.05;;;1.38;;
18082;SDS011;9168;51.194;6.840;2022-09-02T00:53:36;9.07;;;1.55;;
18082;SDS011;9168;51.194;6.840;2022-09-02T00:56:04;4.53;;;1.30;;
18082;SDS011;9168;51.194;6.840;2022-09-02T00:58:34;2.92;;;1.33;;
18082;SDS011;9168;51.194;6.840;2022-09-02T01:01:03;5.35;;;1.38;;
18082;SDS011;9168;51.194;6.840;2022-09-02T01:03:31;4.70;;;1.65;;
18082;SDS011;9168;51.194;6.840;2022-09-02T01:05:58;4.10;;;1.40;;
18082;SDS011;9168;51.194;6.840;2022-09-02T01:08:27;3.38;;;1.30;;
18082;SDS011;9168;51.194;6.840;2022-09-02T01:10:59;2.58;;;1.40;;
18082;SDS011;9168;51.194;6.840;2022-09-02T01:13:28;3.15;;;1.40;;
18082;SDS011;9168;51.194;6.840;2022-09-02T01:16:09;6.90;;;1.70;;
18082;SDS011;9168;51.194;6.840;2022-09-02T01:18:39;3.95;;;1.60;;
18082;SDS011;9168;51.194;6.840;2022-09-02T01:21:10;3.70;;;1.65;;
18082;SDS011;9168;51.194;6.840;2022-09-02T01:23:39;8.32;;;1.60;;
18082;SDS011;9168;51.194;6.840;2022-09-02T01:26:06;4.00;;;1.45;;
18082;SDS011;9168;51.194;6.840;2022-09-02T01:28:33;4.38;;;1.65;;
18082;SDS011;9168;51.194;6.840;2022-09-02T01:31:01;6.38;;;1.63;;
18082;SDS011;9168;51.194;6.840;2022-09-02T01:33:28;5.18;;;1.40;;
18082;SDS011;9168;51.194;6.840;2022-09-02T01:35:55;3.28;;;1.65;;
18082;SDS011;9168;51.194;6.840;2022-09-02T01:38:23;4.03;;;1.40;;
18082;SDS011;9168;51.194;6.840;2022-09-02T01:40:51;5.18;;;1.48;;
18082;SDS011;9168;51.194;6.840;2022-09-02T01:43:21;3.78;;;1.30;;
18082;SDS011;9168;51.194;6.840;2022-09-02T01:45:50;6.70;;;1.60;;
18082;SDS011;9168;51.194;6.840;2022-09-02T01:48:19;4.47;;;1.40;;
18082;SDS011;9168;51.194;6.840;2022-09-02T01:50:48;11.75;;;1.63;;
18082;SDS011;9168;51.194;6.840;2022-09-02T01:53:16;4.63;;;1.30;;
18082;SDS011;9168;51.194;6.840;2022-09-02T01:55:43;4.30;;;1.35;;
18082;SDS011;9168;51.194;6.840;2022-09-02T01:58:12;2.10;;;1.38;;
18082;SDS011;9168;51.194;6.840;2022-09-02T02:00:39;4.25;;;1.35;;
18082;SDS011;9168;51.194;6.840;2022-09-02T02:03:06;2.00;;;1.25;;
18082;SDS011;9168;51.194;6.840;2022-09-02T02:05:33;12.40;;;1.88;;
18082;SDS011;9168;51.194;6.840;2022-09-02T02:08:00;3.95;;;1.35;;
18082;SDS011;9168;51.194;6.840;2022-09-02T02:10:28;4.00;;;1.27;;
18082;SDS011;9168;51.194;6.840;2022-09-02T02:12:55;3.22;;;1.40;;
18082;SDS011;9168;51.194;6.840;2022-09-02T02:15:23;5.68;;;1.40;;
18082;SDS011;9168;51.194;6.840;2022-09-02T02:17:50;4.10;;;1.58;;
18082;SDS011;9168;51.194;6.840;2022-09-02T02:20:17;3.70;;;1.20;;
18082;SDS011;9168;51.194;6.840;2022-09-02T02:22:45;7.70;;;1.30;;
18082;SDS011;9168;51.194;6.840;2022-09-02T02:25:13;3.08;;;1.33;;
18082;SDS011;9168;51.194;6.840;2022-09-02T02:27:40;4.05;;;1.50;;
18082;SDS011;9168;51.194;6.840;2022-09-02T02:30:08;4.38;;;1.52;;
18082;SDS011;9168;51.194;6.840;2022-09-02T02:32:38;4.90;;;1.60;;
18082;SDS011;9168;51.194;6.840;2022-09-02T02:35:06;2.13;;;1.38;;
18082;SDS011;9168;51.194;6.840;2022-09-02T02:37:33;6.60;;;1.52;;
18082;SDS011;9168;51.194;6.840;2022-09-02T02:40:00;2.78;;;1.35;;
18082;SDS011;9168;51.194;6.840;2022-09-02T02:42:28;6.00;;;1.38;;
18082;SDS011;9168;51.194;6.840;2022-09-02T02:44:54;7.15;;;1.90;;
18082;SDS011;9168;51.194;6.840;2022-09-02T02:47:21;3.28;;;1.60;;
18082;SDS011;9168;51.194;6.840;2022-09-02T02:49:50;4.15;;;1.48;;
18082;SDS011;9168;51.194;6.840;2022-09-02T02:52:17;3.33;;;1.38;;
18082;SDS011;9168;51.194;6.840;2022-09-02T02:54:44;2.22;;;1.30;;
18082;SDS011;9168;51.194;6.840;2022-09-02T02:57:11;6.43;;;1.23;;
18082;SDS011;9168;51.194;6.840;2022-09-02T02:59:38;4.63;;;1.35;;
18082;SDS011;9168;51.194;6.840;2022-09-02T03:02:05;5.45;;;1.35;;
18082;SDS011;9168;51.194;6.840;2022-09-02T03:04:32;5.13;;;1.40;;
18082;SDS011;9168;51.194;6.840;2022-09-02T03:07:01;4.35;;;1.23;;
18082;SDS011;9168;51.194;6.840;2022-09-02T03:09:31;3.97;;;1.42;;
18082;SDS011;9168;51.194;6.840;2022-09-02T03:11:58;4.95;;;1.70;;
18082;SDS011;9168;51.194;6.840;2022-09-02T03:14:25;3.08;;;1.48;;
18082;SDS011;9168;51.194;6.840;2022-09-02T03:16:52;9.45;;;1.48;;
18082;SDS011;9168;51.194;6.840;2022-09-02T03:19:19;8.32;;;1.50;;
18082;SDS011;9168;51.194;6.840;2022-09-02T03:21:46;2.65;;;1.25;;
18082;SDS011;9168;51.194;6.840;2022-09-02T03:24:14;3.83;;;1.42;;
18082;SDS011;9168;51.194;6.840;2022-09-02T03:26:41;4.47;;;1.45;;
18082;SDS011;9168;51.194;6.840;2022-09-02T03:29:08;2.97;;;1.40;;
18082;SDS011;9168;51.194;6.840;2022-09-02T03:31:35;4.38;;;1.45;;
18082;SDS011;9168;51.194;6.840;2022-09-02T03:34:02;2.38;;;1.27;;
18082;SDS011;9168;51.194;6.840;2022-09-02T03:36:30;5.90;;;1.48;;
18082;SDS011;9168;51.194;6.840;2022-09-02T03:38:58;4.55;;;1.30;;
18082;SDS011;9168;51.194;6.840;2022-09-02T03:41:27;4.28;;;1.67;;
18082;SDS011;9168;51.194;6.840;2022-09-02T03:43:53;5.35;;;1.35;;
18082;SDS011;9168;51.194;6.840;2022-09-02T03:46:21;3.88;;;1.63;;
18082;SDS011;9168;51.194;6.840;2022-09-02T03:48:49;5.22;;;1.70;;
18082;SDS011;9168;51.194;6.840;2022-09-02T03:51:16;3.45;;;1.65;;
18082;SDS011;9168;51.194;6.840;2022-09-02T03:53:43;6.65;;;1.60;;
18082;SDS011;9168;51.194;6.840;2022-09-02T03:56:11;6.47;;;1.30;;
18082;SDS011;9168;51.194;6.840;2022-09-02T03:58:41;3.00;;;1.52;;
18082;SDS011;9168;51.194;6.840;2022-09-02T04:01:12;5.53;;;1.70;;
18082;SDS011;9168;51.194;6.840;2022-09-02T04:03:40;5.40;;;1.55;;
18082;SDS011;9168;51.194;6.840;2022-09-02T04:06:07;3.80;;;1.55;;
18082;SDS011;9168;51.194;6.840;2022-09-02T04:08:36;7.35;;;1.70;;
18082;SDS011;9168;51.194;6.840;2022-09-02T04:11:04;4.13;;;1.42;;
18082;SDS011;9168;51.194;6.840;2022-09-02T04:13:32;3.33;;;1.40;;
18082;SDS011;9168;51.194;6.840;2022-09-02T04:16:04;4.55;;;1.52;;
18082;SDS011;9168;51.194;6.840;2022-09-02T04:18:32;7.43;;;1.35;;
18082;SDS011;9168;51.194;6.840;2022-09-02T04:20:59;4.32;;;1.40;;
18082;SDS011;9168;51.194;6.840;2022-09-02T04:23:26;5.65;;;1.80;;
18082;SDS011;9168;51.194;6.840;2022-09-02T04:25:53;6.40;;;1.88;;
18082;SDS011;9168;51.194;6.840;2022-09-02T04:28:20;3.45;;;1.52;;
18082;SDS011;9168;51.194;6.840;2022-09-02T04:30:47;3.25;;;1.50;;
18082;SDS011;9168;51.194;6.840;2022-09-02T04:33:15;4.10;;;1.52;;
18082;SDS011;9168;51.194;6.840;2022-09-02T04:35:43;4.10;;;1.55;;
18082;SDS011;9168;51.194;6.840;2022-09-02T04:38:12;10.68;;;1.73;;
18082;SDS011;9168;51.194;6.840;2022-09-02T04:40:39;3.47;;;1.45;;
18082;SDS011;9168;51.194;6.840;2022-09-02T04:43:06;6.85;;;1.55;;
18082;SDS011;9168;51.194;6.840;2022-09-02T04:45:33;6.45;;;2.10;;
18082;SDS011;9168;51.194;6.840;2022-09-02T04:48:01;11.10;;;1.80;;
18082;SDS011;9168;51.194;6.840;2022-09-02T04:50:29;6.55;;;1.40;;
18082;SDS011;9168;51.194;6.840;2022-09-02T04:52:56;11.65;;;2.00;;
18082;SDS011;9168;51.194;6.840;2022-09-02T04:55:24;10.98;;;2.00;;
18082;SDS011;9168;51.194;6.840;2022-09-02T04:57:51;6.85;;;2.15;;
18082;SDS011;9168;51.194;6.840;2022-09-02T05:00:17;12.80;;;1.90;;
18082;SDS011;9168;51.194;6.840;2022-09-02T05:02:45;10.13;;;1.95;;
18082;SDS011;9168;51.194;6.840;2022-09-02T05:05:11;11.73;;;1.67;;
18082;SDS011;9168;51.194;6.840;2022-09-02T05:07:40;11.90;;;2.08;;
18082;SDS011;9168;51.194;6.840;2022-09-02T05:10:07;10.27;;;1.80;;
18082;SDS011;9168;51.194;6.840;2022-09-02T05:12:37;9.10;;;1.70;;
18082;SDS011;9168;51.194;6.840;2022-09-02T05:15:05;7.57;;;1.80;;
18082;SDS011;9168;51.194;6.840;2022-09-02T05:17:32;9.70;;;2.25;;
18082;SDS011;9168;51.194;6.840;2022-09-02T05:20:00;11.48;;;1.88;;
18082;SDS011;9168;51.194;6.840;2022-09-02T05:22:28;12.05;;;1.77;;
18082;SDS011;9168;51.194;6.840;2022-09-02T05:24:57;13.85;;;2.15;;
18082;SDS011;9168;51.194;6.840;2022-09-02T05:27:23;13.65;;;2.53;;
18082;SDS011;9168;51.194;6.840;2022-09-02T05:29:53;3.10;;;1.67;;
18082;SDS011;9168;51.194;6.840;2022-09-02T05:32:21;10.00;;;1.80;;
18082;SDS011;9168;51.194;6.840;2022-09-02T05:34:48;5.32;;;2.10;;
18082;SDS011;9168;51.194;6.840;2022-09-02T05:37:15;6.05;;;2.17;;
18082;SDS011;9168;51.194;6.840;2022-09-02T05:39:42;4.32;;;2.30;;
18082;SDS011;9168;51.194;6.840;2022-09-02T05:42:10;8.65;;;2.05;;
18082;SDS011;9168;51.194;6.840;2022-09-02T05:44:37;6.97;;;2.05;;
18082;SDS011;9168;51.194;6.840;2022-09-02T05:47:04;6.22;;;2.00;;
18082;SDS011;9168;51.194;6.840;2022-09-02T05:49:31;8.10;;;1.63;;
18082;SDS011;9168;51.194;6.840;2022-09-02T05:51:58;2.75;;;1.60;;
18082;SDS011;9168;51.194;6.840;2022-09-02T05:54:29;7.93;;;1.60;;
18082;SDS011;9168;51.194;6.840;2022-09-02T05:56:58;9.10;;;2.00;;
18082;SDS011;9168;51.194;6.840;2022-09-02T05:59:28;9.20;;;1.77;;
18082;SDS011;9168;51.194;6.840;2022-09-02T06:01:56;7.53;;;1.55;;
18082;SDS011;9168;51.194;6.840;2022-09-02T06:04:23;8.90;;;1.73;;
18082;SDS011;9168;51.194;6.840;2022-09-02T06:06:51;7.15;;;1.65;;
18082;SDS011;9168;51.194;6.840;2022-09-02T06:09:21;6.53;;;2.03;;
18082;SDS011;9168;51.194;6.840;2022-09-02T06:11:49;4.68;;;1.48;;
18082;SDS011;9168;51.194;6.840;2022-09-02T06:14:17;5.63;;;1.70;;
18082;SDS011;9168;51.194;6.840;2022-09-02T06:16:47;5.00;;;1.77;;
18082;SDS011;9168;51.194;6.840;2022-09-02T06:19:15;9.32;;;1.83;;
18082;SDS011;9168;51.194;6.840;2022-09-02T06:21:43;8.70;;;1.92;;
18082;SDS011;9168;51.194;6.840;2022-09-02T06:24:10;7.18;;;1.70;;
18082;SDS011;9168;51.194;6.840;2022-09-02T06:26:38;7.80;;;1.30;;
18082;SDS011;9168;51.194;6.840;2022-09-02T06:29:06;11.82;;;1.70;;
18082;SDS011;9168;51.194;6.840;2022-09-02T06:31:34;5.82;;;1.73;;
18082;SDS011;9168;51.194;6.840;2022-09-02T06:34:03;7.32;;;1.90;;
18082;SDS011;9168;51.194;6.840;2022-09-02T06:36:30;4.85;;;1.63;;
18082;SDS011;9168;51.194;6.840;2022-09-02T06:38:57;9.90;;;1.83;;
18082;SDS011;9168;51.194;6.840;2022-09-02T06:41:26;8.50;;;1.92;;
18082;SDS011;9168;51.194;6.840;2022-09-02T06:43:55;4.30;;;1.90;;
18082;SDS011;9168;51.194;6.840;2022-09-02T06:46:24;3.08;;;1.55;;
18082;SDS011;9168;51.194;6.840;2022-09-02T06:48:52;6.68;;;1.70;;
18082;SDS011;9168;51.194;6.840;2022-09-02T06:51:21;4.90;;;1.80;;
18082;SDS011;9168;51.194;6.840;2022-09-02T06:53:49;4.07;;;1.50;;
18082;SDS011;9168;51.194;6.840;2022-09-02T06:56:16;12.65;;;2.28;;
18082;SDS011;9168;51.194;6.840;2022-09-02T06:58:43;6.38;;;1.90;;
18082;SDS011;9168;51.194;6.840;2022-09-02T07:01:16;7.32;;;2.10;;
18082;SDS011;9168;51.194;6.840;2022-09-02T07:03:44;8.23;;;1.85;;
18082;SDS011;9168;51.194;6.840;2022-09-02T07:06:31;8.45;;;1.65;;
18082;SDS011;9168;51.194;6.840;2022-09-02T07:09:01;3.60;;;1.77;;
18082;SDS011;9168;51.194;6.840;2022-09-02T07:11:28;4.45;;;1.73;;
18082;SDS011;9168;51.194;6.840;2022-09-02T07:13:55;5.50;;;2.10;;
18082;SDS011;9168;51.194;6.840;2022-09-02T07:16:25;4.45;;;1.70;;
18082;SDS011;9168;51.194;6.840;2022-09-02T07:18:52;8.32;;;1.98;;
18082;SDS011;9168;51.194;6.840;2022-09-02T07:21:19;6.30;;;1.65;;
18082;SDS011;9168;51.194;6.840;2022-09-02T07:23:47;6.82;;;1.85;;
18082;SDS011;9168;51.194;6.840;2022-09-02T07:26:15;7.75;;;1.40;;
18082;SDS011;9168;51.194;6.840;2022-09-02T07:28:42;4.85;;;1.52;;
18082;SDS011;9168;51.194;6.840;2022-09-02T07:31:12;9.60;;;2.15;;
18082;SDS011;9168;51.194;6.840;2022-09-02T07:33:40;4.60;;;1.77;;
18082;SDS011;9168;51.194;6.840;2022-09-02T07:36:09;9.45;;;1.90;;
18082;SDS011;9168;51.194;6.840;2022-09-02T07:38:37;3.00;;;1.95;;
18082;SDS011;9168;51.194;6.840;2022-09-02T07:41:06;5.88;;;2.10;;
18082;SDS011;9168;51.194;6.840;2022-09-02T07:43:36;2.88;;;1.63;;
18082;SDS011;9168;51.194;6.840;2022-09-02T07:46:05;7.63;;;1.92;;
18082;SDS011;9168;51.194;6.840;2022-09-02T07:48:33;5.97;;;1.67;;
18082;SDS011;9168;51.194;6.840;2022-09-02T07:51:00;6.20;;;1.90;;
18082;SDS011;9168;51.194;6.840;2022-09-02T07:53:28;3.60;;;1.48;;
18082;SDS011;9168;51.194;6.840;2022-09-02T07:55:56;3.97;;;1.60;;
18082;SDS011;9168;51.194;6.840;2022-09-02T07:58:25;6.47;;;1.60;;
18082;SDS011;9168;51.194;6.840;2022-09-02T08:00:52;4.50;;;1.55;;
18082;SDS011;9168;51.194;6.840;2022-09-02T08:03:21;9.65;;;1.90;;
18082;SDS011;9168;51.194;6.840;2022-09-02T08:05:49;10.02;;;1.52;;
18082;SDS011;9168;51.194;6.840;2022-09-02T08:08:16;3.60;;;1.70;;
18082;SDS011;9168;51.194;6.840;2022-09-02T08:10:45;8.52;;;2.00;;
18082;SDS011;9168;51.194;6.840;2022-09-02T08:13:12;6.28;;;2.00;;
18082;SDS011;9168;51.194;6.840;2022-09-02T08:15:41;4.70;;;2.00;;
18082;SDS011;9168;51.194;6.840;2022-09-02T08:18:08;4.25;;;1.80;;
18082;SDS011;9168;51.194;6.840;2022-09-02T08:20:35;4.50;;;1.60;;
18082;SDS011;9168;51.194;6.840;2022-09-02T08:23:02;8.38;;;1.83;;
18082;SDS011;9168;51.194;6.840;2022-09-02T08:25:30;6.47;;;1.92;;
18082;SDS011;9168;51.194;6.840;2022-09-02T08:27:57;7.72;;;1.90;;
18082;SDS011;9168;51.194;6.840;2022-09-02T08:30:26;3.13;;;1.75;;
18082;SDS011;9168;51.194;6.840;2022-09-02T08:33:01;4.75;;;1.70;;
18082;SDS011;9168;51.194;6.840;2022-09-02T08:35:27;4.47;;;1.90;;
18082;SDS011;9168;51.194;6.840;2022-09-02T08:37:56;6.47;;;1.98;;
18082;SDS011;9168;51.194;6.840;2022-09-02T08:40:23;17.52;;;2.42;;
18082;SDS011;9168;51.194;6.840;2022-09-02T08:42:58;14.40;;;1.77;;
18082;SDS011;9168;51.194;6.840;2022-09-02T08:45:27;8.35;;;1.77;;
18082;SDS011;9168;51.194;6.840;2022-09-02T08:48:03;6.05;;;1.50;;
18082;SDS011;9168;51.194;6.840;2022-09-02T08:50:35;10.15;;;2.05;;
18082;SDS011;9168;51.194;6.840;2022-09-02T08:53:06;4.10;;;1.60;;
18082;SDS011;9168;51.194;6.840;2022-09-02T08:55:43;8.02;;;1.92;;
18082;SDS011;9168;51.194;6.840;2022-09-02T08:58:16;6.03;;;2.03;;
18082;SDS011;9168;51.194;6.840;2022-09-02T09:00:48;4.38;;;1.55;;
18082;SDS011;9168;51.194;6.840;2022-09-02T09:03:23;2.33;;;1.50;;
18082;SDS011;9168;51.194;6.840;2022-09-02T09:05:56;3.80;;;2.00;;
18082;SDS011;9168;51.194;6.840;2022-09-02T09:08:31;4.35;;;1.90;;
18082;SDS011;9168;51.194;6.840;2022-09-02T09:11:05;9.80;;;2.28;;
18082;SDS011;9168;51.194;6.840;2022-09-02T09:13:45;3.00;;;1.58;;
18082;SDS011;9168;51.194;6.840;2022-09-02T09:16:26;6.97;;;1.90;;
18082;SDS011;9168;51.194;6.840;2022-09-02T09:19:00;7.00;;;2.00;;
18082;SDS011;9168;51.194;6.840;2022-09-02T09:21:32;5.82;;;2.08;;
18082;SDS011;9168;51.194;6.840;2022-09-02T09:24:00;2.80;;;1.40;;
18082;SDS011;9168;51.194;6.840;2022-09-02T09:26:33;9.35;;;1.73;;
18082;SDS011;9168;51.194;6.840;2022-09-02T09:29:04;9.55;;;1.80;;
18082;SDS011;9168;51.194;6.840;2022-09-02T09:31:32;6.20;;;2.05;;
18082;SDS011;9168;51.194;6.840;2022-09-02T09:34:03;5.45;;;1.83;;
18082;SDS011;9168;51.194;6.840;2022-09-02T09:36:45;6.72;;;1.80;;
18082;SDS011;9168;51.194;6.840;2022-09-02T09:39:21;5.25;;;2.00;;
18082;SDS011;9168;51.194;6.840;2022-09-02T09:41:50;8.77;;;1.83;;
18082;SDS011;9168;51.194;6.840;2022-09-02T09:44:35;6.95;;;1.70;;
18082;SDS011;9168;51.194;6.840;2022-09-02T09:47:09;3.00;;;1.65;;
18082;SDS011;9168;51.194;6.840;2022-09-02T09:49:41;4.22;;;1.70;;
18082;SDS011;9168;51.194;6.840;2022-09-02T09:52:07;8.00;;;1.80;;
18082;SDS011;9168;51.194;6.840;2022-09-02T09:54:34;10.27;;;2.25;;
18082;SDS011;9168;51.194;6.840;2022-09-02T09:57:14;5.93;;;1.85;;
18082;SDS011;9168;51.194;6.840;2022-09-02T09:59:45;7.47;;;1.90;;
18082;SDS011;9168;51.194;6.840;2022-09-02T10:02:20;5.57;;;1.48;;
18082;SDS011;9168;51.194;6.840;2022-09-02T10:04:49;9.55;;;2.13;;
18082;SDS011;9168;51.194;6.840;2022-09-02T10:07:35;4.10;;;1.70;;
18082;SDS011;9168;51.194;6.840;2022-09-02T10:10:14;4.63;;;1.63;;
18082;SDS011;9168;51.194;6.840;2022-09-02T10:12:43;8.88;;;1.80;;
18082;SDS011;9168;51.194;6.840;2022-09-02T10:15:11;5.40;;;2.00;;
18082;SDS011;9168;51.194;6.840;2022-09-02T10:17:39;13.65;;;1.70;;
18082;SDS011;9168;51.194;6.840;2022-09-02T10:20:17;3.63;;;1.60;;
18082;SDS011;9168;51.194;6.840;2022-09-02T10:22:59;3.88;;;1.67;;
18082;SDS011;9168;51.194;6.840;2022-09-02T10:25:37;4.95;;;1.70;;
18082;SDS011;9168;51.194;6.840;2022-09-02T10:28:17;14.95;;;2.00;;
18082;SDS011;9168;51.194;6.840;2022-09-02T10:30:54;7.35;;;2.15;;
18082;SDS011;9168;51.194;6.840;2022-09-02T10:33:35;5.38;;;1.75;;
18082;SDS011;9168;51.194;6.840;2022-09-02T10:36:15;5.10;;;1.50;;
18082;SDS011;9168;51.194;6.840;2022-09-02T10:38:52;4.03;;;1.67;;
18082;SDS011;9168;51.194;6.840;2022-09-02T10:41:36;4.53;;;1.80;;
18082;SDS011;9168;51.194;6.840;2022-09-02T10:44:11;9.55;;;1.92;;
18082;SDS011;9168;51.194;6.840;2022-09-02T10:46:54;5.15;;;1.88;;
18082;SDS011;9168;51.194;6.840;2022-09-02T10:49:29;4.57;;;1.73;;
18082;SDS011;9168;51.194;6.840;2022-09-02T10:52:27;7.10;;;1.77;;
18082;SDS011;9168;51.194;6.840;2022-09-02T10:55:05;6.00;;;2.03;;
18082;SDS011;9168;51.194;6.840;2022-09-02T10:57:41;5.05;;;1.67;;
18082;SDS011;9168;51.194;6.840;2022-09-02T11:00:13;2.55;;;1.70;;
18082;SDS011;9168;51.194;6.840;2022-09-02T11:02:43;2.58;;;1.70;;
18082;SDS011;9168;51.194;6.840;2022-09-02T11:05:13;2.28;;;1.52;;
18082;SDS011;9168;51.194;6.840;2022-09-02T11:07:46;5.18;;;1.70;;
18082;SDS011;9168;51.194;6.840;2022-09-02T11:10:19;4.15;;;1.40;;
18082;SDS011;9168;51.194;6.840;2022-09-02T11:12:50;4.78;;;1.60;;
18082;SDS011;9168;51.194;6.840;2022-09-02T11:15:22;3.95;;;1.80;;
18082;SDS011;9168;51.194;6.840;2022-09-02T11:17:59;12.55;;;2.78;;
18082;SDS011;9168;51.194;6.840;2022-09-02T11:20:31;7.45;;;2.20;;
18082;SDS011;9168;51.194;6.840;2022-09-02T11:23:08;7.03;;;2.00;;
18082;SDS011;9168;51.194;6.840;2022-09-02T11:25:46;3.25;;;2.13;;
18082;SDS011;9168;51.194;6.840;2022-09-02T11:28:24;5.88;;;1.90;;
18082;SDS011;9168;51.194;6.840;2022-09-02T11:30:59;3.03;;;1.83;;
18082;SDS011;9168;51.194;6.840;2022-09-02T11:33:33;7.97;;;2.40;;
18082;SDS011;9168;51.194;6.840;2022-09-02T11:36:10;8.65;;;2.13;;
18082;SDS011;9168;51.194;6.840;2022-09-02T11:38:40;11.35;;;2.10;;
18082;SDS011;9168;51.194;6.840;2022-09-02T11:41:23;11.35;;;2.00;;
18082;SDS011;9168;51.194;6.840;2022-09-02T11:43:54;13.63;;;2.00;;
18082;SDS011;9168;51.194;6.840;2022-09-02T11:49:30;5.18;;;1.90;;
18082;SDS011;9168;51.194;6.840;2022-09-02T11:52:23;3.70;;;1.80;;
18082;SDS011;9168;51.194;6.840;2022-09-02T11:55:05;4.00;;;2.05;;
18082;SDS011;9168;51.194;6.840;2022-09-02T11:57:36;3.50;;;2.08;;
18082;SDS011;9168;51.194;6.840;2022-09-02T12:00:07;3.25;;;2.00;;
18082;SDS011;9168;51.194;6.840;2022-09-02T12:02:57;7.18;;;2.17;;
18082;SDS011;9168;51.194;6.840;2022-09-02T12:05:49;5.00;;;2.05;;
18082;SDS011;9168;51.194;6.840;2022-09-02T12:29:32;3.38;;;2.00;;
18082;SDS011;9168;51.194;6.840;2022-09-02T12:32:00;4.90;;;2.10;;
18082;SDS011;9168;51.194;6.840;2022-09-02T12:40:19;5.38;;;2.65;;
18082;SDS011;9168;51.194;6.840;2022-09-02T12:42:57;8.10;;;2.33;;
18082;SDS011;9168;51.194;6.840;2022-09-02T12:45:27;7.60;;;2.60;;
18082;SDS011;9168;51.194;6.840;2022-09-02T12:47:59;5.75;;;2.20;;
18082;SDS011;9168;51.194;6.840;2022-09-02T12:50:50;6.78;;;2.20;;
18082;SDS011;9168;51.194;6.840;2022-09-02T12:53:24;4.50;;;2.30;;
18082;SDS011;9168;51.194;6.840;2022-09-02T12:55:57;4.53;;;2.20;;
18082;SDS011;9168;51.194;6.840;2022-09-02T12:58:27;3.35;;;2.15;;
18082;SDS011;9168;51.194;6.840;2022-09-02T13:01:00;3.95;;;2.30;;
18082;SDS011;9168;51.194;6.840;2022-09-02T13:03:59;6.63;;;2.50;;
18082;SDS011;9168;51.194;6.840;2022-09-02T13:06:52;6.13;;;2.92;;
18082;SDS011;9168;51.194;6.840;2022-09-02T13:10:02;5.45;;;2.53;;
18082;SDS011;9168;51.194;6.840;2022-09-02T13:12:56;4.82;;;2.53;;
18082;SDS011;9168;51.194;6.840;2022-09-02T13:15:59;6.90;;;2.63;;
18082;SDS011;9168;51.194;6.840;2022-09-02T13:18:42;3.47;;;2.40;;
18082;SDS011;9168;51.194;6.840;2022-09-02T13:21:35;4.93;;;2.42;;
18082;SDS011;9168;51.194;6.840;2022-09-02T13:27:25;6.05;;;2.50;;
18082;SDS011;9168;51.194;6.840;2022-09-02T13:30:09;5.28;;;2.47;;
18082;SDS011;9168;51.194;6.840;2022-09-02T13:32:43;6.30;;;2.60;;
18082;SDS011;9168;51.194;6.840;2022-09-02T13:35:15;4.65;;;2.70;;
18082;SDS011;9168;51.194;6.840;2022-09-02T13:37:44;3.80;;;2.40;;
18082;SDS011;9168;51.194;6.840;2022-09-02T13:40:23;5.82;;;2.25;;
18082;SDS011;9168;51.194;6.840;2022-09-02T13:42:52;8.27;;;2.70;;
18082;SDS011;9168;51.194;6.840;2022-09-02T13:45:20;3.38;;;2.33;;
18082;SDS011;9168;51.194;6.840;2022-09-02T13:47:50;6.30;;;2.42;;
18082;SDS011;9168;51.194;6.840;2022-09-02T13:50:19;3.22;;;2.40;;
18082;SDS011;9168;51.194;6.840;2022-09-02T13:52:48;4.13;;;2.20;;
18082;SDS011;9168;51.194;6.840;2022-09-02T13:55:18;6.07;;;2.20;;
18082;SDS011;9168;51.194;6.840;2022-09-02T13:57:46;3.35;;;2.20;;
18082;SDS011;9168;51.194;6.840;2022-09-02T14:00:25;4.95;;;2.40;;
18082;SDS011;9168;51.194;6.840;2022-09-02T14:02:59;4.15;;;2.40;;
18082;SDS011;9168;51.194;6.840;2022-09-02T14:05:29;9.35;;;2.30;;
18082;SDS011;9168;51.194;6.840;2022-09-02T14:08:00;2.72;;;2.20;;
18082;SDS011;9168;51.194;6.840;2022-09-02T14:10:29;3.90;;;2.58;;
18082;SDS011;9168;51.194;6.840;2022-09-02T14:12:58;3.83;;;2.60;;
18082;SDS011;9168;51.194;6.840;2022-09-02T14:15:28;4.18;;;2.20;;
18082;SDS011;9168;51.194;6.840;2022-09-02T14:18:09;4.28;;;2.60;;
18082;SDS011;9168;51.194;6.840;2022-09-02T14:20:39;4.47;;;2.40;;
18082;SDS011;9168;51.194;6.840;2022-09-02T14:23:19;7.63;;;2.40;;
18082;SDS011;9168;51.194;6.840;2022-09-02T14:25:48;6.40;;;2.80;;
18082;SDS011;9168;51.194;6.840;2022-09-02T14:28:18;3.78;;;2.38;;
18082;SDS011;9168;51.194;6.840;2022-09-02T14:30:53;4.20;;;2.63;;
18082;SDS011;9168;51.194;6.840;2022-09-02T14:33:25;2.67;;;2.45;;
18082;SDS011;9168;51.194;6.840;2022-09-02T14:36:08;6.97;;;2.45;;
18082;SDS011;9168;51.194;6.840;2022-09-02T14:38:48;3.50;;;2.70;;
18082;SDS011;9168;51.194;6.840;2022-09-02T14:41:19;4.38;;;2.80;;
18082;SDS011;9168;51.194;6.840;2022-09-02T14:43:49;5.13;;;2.58;;
18082;SDS011;9168;51.194;6.840;2022-09-02T14:46:25;5.53;;;2.60;;
18082;SDS011;9168;51.194;6.840;2022-09-02T14:49:04;7.28;;;2.70;;
18082;SDS011;9168;51.194;6.840;2022-09-02T14:51:34;5.68;;;2.60;;
18082;SDS011;9168;51.194;6.840;2022-09-02T14:54:03;10.57;;;2.90;;
18082;SDS011;9168;51.194;6.840;2022-09-02T14:56:51;4.53;;;2.63;;
18082;SDS011;9168;51.194;6.840;2022-09-02T14:59:18;6.85;;;2.90;;
18082;SDS011;9168;51.194;6.840;2022-09-02T15:01:46;7.25;;;2.80;;
18082;SDS011;9168;51.194;6.840;2022-09-02T15:04:16;10.98;;;2.95;;
18082;SDS011;9168;51.194;6.840;2022-09-02T15:06:44;2.97;;;2.53;;
18082;SDS011;9168;51.194;6.840;2022-09-02T15:09:12;3.70;;;2.60;;
18082;SDS011;9168;51.194;6.840;2022-09-02T15:11:41;10.50;;;2.55;;
18082;SDS011;9168;51.194;6.840;2022-09-02T15:14:10;4.35;;;2.38;;
18082;SDS011;9168;51.194;6.840;2022-09-02T15:16:37;5.55;;;2.70;;
18082;SDS011;9168;51.194;6.840;2022-09-02T15:19:04;3.05;;;2.40;;
18082;SDS011;9168;51.194;6.840;2022-09-02T15:21:32;2.80;;;2.28;;
18082;SDS011;9168;51.194;6.840;2022-09-02T15:23:59;6.88;;;2.60;;
18082;SDS011;9168;51.194;6.840;2022-09-02T15:26:26;4.68;;;2.50;;
18082;SDS011;9168;51.194;6.840;2022-09-02T15:28:53;5.68;;;2.50;;
18082;SDS011;9168;51.194;6.840;2022-09-02T15:31:19;4.05;;;2.30;;
18082;SDS011;9168;51.194;6.840;2022-09-02T15:33:49;4.35;;;2.38;;
18082;SDS011;9168;51.194;6.840;2022-09-02T15:36:16;4.32;;;2.30;;
18082;SDS011;9168;51.194;6.840;2022-09-02T15:38:46;8.48;;;2.47;;
18082;SDS011;9168;51.194;6.840;2022-09-02T15:41:14;5.40;;;2.20;;
18082;SDS011;9168;51.194;6.840;2022-09-02T15:43:42;4.82;;;2.17;;
18082;SDS011;9168;51.194;6.840;2022-09-02T15:46:15;6.70;;;2.30;;
18082;SDS011;9168;51.194;6.840;2022-09-02T15:48:43;5.30;;;2.40;;
18082;SDS011;9168;51.194;6.840;2022-09-02T15:51:10;4.38;;;2.17;;
18082;SDS011;9168;51.194;6.840;2022-09-02T15:53:37;8.43;;;2.13;;
18082;SDS011;9168;51.194;6.840;2022-09-02T15:56:06;3.25;;;2.20;;